Terminal Aerodrome Forecast
Issued by NWS Charleston, WV

Home | Current Version | Previous Version | Text Only | Print | Product List | Glossary On
Versions: 1 2 3 4 5 6 7 8 9 10 11 12 13 14 15 16 17 18 19 20 21 22 23 24 25 26 27 28
000
FTUS41 KRLX 211500 AAA
TAFEKN
TAF AMD
KEKN 211509Z 2115/2212 20006KT 6SM -SHRA BKN025
     FM211800 26011G21KT 5SM TSRA BR OVC025CB
     FM220100 27010G20KT P6SM VCTS BKN025CB
     FM220300 30008G17KT P6SM BKN025
     FM220500 29006KT 6SM BR BKN025
     FM221000 29005KT 3SM BR BKN008=

USA.gov is the U.S. government's official web portal to all federal, state and local government web resources and services.